Terminal Aerodrome Forecast
Issued by NWS

Home | Current Version | Previous Version | Text Only | Print | Product List | Glossary On
Versions: 1 2 3 4 5 6 7 8 9 10 11 12 13 14 15 16 17 18 19 20
783
FTUS43 KICT 121902 AAA
TAFHUT
TAF AMD
KHUT 121902Z 1219/1318 02013KT P6SM OVC015
     FM122100 03013KT P6SM BKN025 OVC130
     FM122230 03013KT P6SM BKN035 OVC110
     FM130200 03009KT P6SM SCT020 OVC100=

USA.gov is the U.S. government's official web portal to all federal, state and local government web resources and services.